sensor_id;sensor_type;location;lat;lon;timestamp;temperature;humidity
27188;DHT22;14708;50.872;5.306;2024-03-22T00:00:59;21.80;60.20
27188;DHT22;14708;50.872;5.306;2024-03-22T00:03:25;21.80;60.30
27188;DHT22;14708;50.872;5.306;2024-03-22T00:05:52;21.80;60.20
27188;DHT22;14708;50.872;5.306;2024-03-22T00:08:17;21.70;60.10
27188;DHT22;14708;50.872;5.306;2024-03-22T00:10:43;21.70;60.20
27188;DHT22;14708;50.872;5.306;2024-03-22T00:13:09;21.70;60.20
27188;DHT22;14708;50.872;5.306;2024-03-22T00:15:35;21.70;60.20
27188;DHT22;14708;50.872;5.306;2024-03-22T00:18:02;21.70;59.90
27188;DHT22;14708;50.872;5.306;2024-03-22T00:20:29;21.70;60.10
27188;DHT22;14708;50.872;5.306;2024-03-22T00:22:55;21.70;60.10
27188;DHT22;14708;50.872;5.306;2024-03-22T00:25:23;21.70;59.80
27188;DHT22;14708;50.872;5.306;2024-03-22T00:27:49;21.60;59.80
27188;DHT22;14708;50.872;5.306;2024-03-22T00:30:15;21.70;59.90
27188;DHT22;14708;50.872;5.306;2024-03-22T00:32:42;21.70;59.70
27188;DHT22;14708;50.872;5.306;2024-03-22T00:38:33;21.60;59.80
27188;DHT22;14708;50.872;5.306;2024-03-22T00:40:58;21.60;59.90
27188;DHT22;14708;50.872;5.306;2024-03-22T00:43:24;21.60;59.90
27188;DHT22;14708;50.872;5.306;2024-03-22T00:45:50;21.60;60.10
27188;DHT22;14708;50.872;5.306;2024-03-22T00:48:17;21.60;59.90
27188;DHT22;14708;50.872;5.306;2024-03-22T00:50:43;21.60;59.80
27188;DHT22;14708;50.872;5.306;2024-03-22T00:53:09;21.60;59.90
27188;DHT22;14708;50.872;5.306;2024-03-22T00:55:35;21.60;59.90
27188;DHT22;14708;50.872;5.306;2024-03-22T00:58:01;21.60;59.80
27188;DHT22;14708;50.872;5.306;2024-03-22T01:00:28;21.60;59.70
27188;DHT22;14708;50.872;5.306;2024-03-22T01:02:53;21.60;59.70
27188;DHT22;14708;50.872;5.306;2024-03-22T01:05:19;21.60;59.80
27188;DHT22;14708;50.872;5.306;2024-03-22T01:07:45;21.60;59.90
27188;DHT22;14708;50.872;5.306;2024-03-22T01:10:11;21.60;59.80
27188;DHT22;14708;50.872;5.306;2024-03-22T01:12:38;21.60;59.70
27188;DHT22;14708;50.872;5.306;2024-03-22T01:15:06;21.60;59.60
27188;DHT22;14708;50.872;5.306;2024-03-22T01:17:33;21.50;59.60
27188;DHT22;14708;50.872;5.306;2024-03-22T01:19:59;21.50;59.50
27188;DHT22;14708;50.872;5.306;2024-03-22T01:22:25;21.50;59.60
27188;DHT22;14708;50.872;5.306;2024-03-22T01:24:51;21.50;59.70
27188;DHT22;14708;50.872;5.306;2024-03-22T01:27:18;21.50;59.60
27188;DHT22;14708;50.872;5.306;2024-03-22T01:29:44;21.50;59.60
27188;DHT22;14708;50.872;5.306;2024-03-22T01:32:10;21.50;59.60
27188;DHT22;14708;50.872;5.306;2024-03-22T01:34:35;21.50;59.50
27188;DHT22;14708;50.872;5.306;2024-03-22T01:37:01;21.50;59.60
27188;DHT22;14708;50.872;5.306;2024-03-22T01:39:28;21.50;59.60
27188;DHT22;14708;50.872;5.306;2024-03-22T01:41:54;21.50;59.60
27188;DHT22;14708;50.872;5.306;2024-03-22T01:44:31;21.50;59.60
27188;DHT22;14708;50.872;5.306;2024-03-22T01:46:57;21.50;59.60
27188;DHT22;14708;50.872;5.306;2024-03-22T01:49:25;21.50;59.40
27188;DHT22;14708;50.872;5.306;2024-03-22T01:51:51;21.50;59.50
27188;DHT22;14708;50.872;5.306;2024-03-22T01:54:18;21.50;59.70
27188;DHT22;14708;50.872;5.306;2024-03-22T01:56:44;21.50;59.50
27188;DHT22;14708;50.872;5.306;2024-03-22T01:59:10;21.50;59.50
27188;DHT22;14708;50.872;5.306;2024-03-22T02:01:36;21.40;59.50
27188;DHT22;14708;50.872;5.306;2024-03-22T02:04:02;21.40;59.40
27188;DHT22;14708;50.872;5.306;2024-03-22T02:06:28;21.40;59.60
27188;DHT22;14708;50.872;5.306;2024-03-22T02:08:56;21.40;59.40
27188;DHT22;14708;50.872;5.306;2024-03-22T02:11:22;21.40;59.60
27188;DHT22;14708;50.872;5.306;2024-03-22T02:13:47;21.40;59.60
27188;DHT22;14708;50.872;5.306;2024-03-22T02:16:13;21.40;59.50
27188;DHT22;14708;50.872;5.306;2024-03-22T02:18:39;21.40;59.50
27188;DHT22;14708;50.872;5.306;2024-03-22T02:21:05;21.40;59.40
27188;DHT22;14708;50.872;5.306;2024-03-22T02:23:40;21.40;59.60
27188;DHT22;14708;50.872;5.306;2024-03-22T02:26:07;21.40;59.60
27188;DHT22;14708;50.872;5.306;2024-03-22T02:28:34;21.40;59.70
27188;DHT22;14708;50.872;5.306;2024-03-22T02:31:04;21.40;59.60
27188;DHT22;14708;50.872;5.306;2024-03-22T02:33:31;21.40;59.40
27188;DHT22;14708;50.872;5.306;2024-03-22T02:35:57;21.40;59.40
27188;DHT22;14708;50.872;5.306;2024-03-22T02:38:23;21.40;59.50
27188;DHT22;14708;50.872;5.306;2024-03-22T02:40:51;21.30;59.40
27188;DHT22;14708;50.872;5.306;2024-03-22T02:43:17;21.30;59.50
27188;DHT22;14708;50.872;5.306;2024-03-22T02:45:44;21.30;59.60
27188;DHT22;14708;50.872;5.306;2024-03-22T02:48:11;21.30;59.40
27188;DHT22;14708;50.872;5.306;2024-03-22T02:50:38;21.40;59.50
27188;DHT22;14708;50.872;5.306;2024-03-22T02:53:04;21.30;59.50
27188;DHT22;14708;50.872;5.306;2024-03-22T02:55:35;21.30;59.50
27188;DHT22;14708;50.872;5.306;2024-03-22T02:58:01;21.30;59.50
27188;DHT22;14708;50.872;5.306;2024-03-22T03:00:28;21.30;59.50
27188;DHT22;14708;50.872;5.306;2024-03-22T03:02:53;21.30;59.50
27188;DHT22;14708;50.872;5.306;2024-03-22T03:05:20;21.30;59.60
27188;DHT22;14708;50.872;5.306;2024-03-22T03:07:48;21.30;59.50
27188;DHT22;14708;50.872;5.306;2024-03-22T03:10:14;21.30;59.40
27188;DHT22;14708;50.872;5.306;2024-03-22T03:12:40;21.30;59.40
27188;DHT22;14708;50.872;5.306;2024-03-22T03:15:06;21.30;59.30
27188;DHT22;14708;50.872;5.306;2024-03-22T03:17:32;21.30;59.30
27188;DHT22;14708;50.872;5.306;2024-03-22T03:19:58;21.20;59.30
27188;DHT22;14708;50.872;5.306;2024-03-22T03:22:24;21.30;59.40
27188;DHT22;14708;50.872;5.306;2024-03-22T03:24:51;21.20;59.40
27188;DHT22;14708;50.872;5.306;2024-03-22T03:27:16;21.20;59.40
27188;DHT22;14708;50.872;5.306;2024-03-22T03:29:42;21.20;59.40
27188;DHT22;14708;50.872;5.306;2024-03-22T03:32:08;21.20;59.40
27188;DHT22;14708;50.872;5.306;2024-03-22T03:34:34;21.20;59.30
27188;DHT22;14708;50.872;5.306;2024-03-22T03:37:00;21.20;59.30
27188;DHT22;14708;50.872;5.306;2024-03-22T03:39:27;21.20;59.50
27188;DHT22;14708;50.872;5.306;2024-03-22T03:41:54;21.20;59.40
27188;DHT22;14708;50.872;5.306;2024-03-22T03:44:20;21.20;59.40
27188;DHT22;14708;50.872;5.306;2024-03-22T03:46:45;21.20;59.40
27188;DHT22;14708;50.872;5.306;2024-03-22T03:49:11;21.20;59.30
27188;DHT22;14708;50.872;5.306;2024-03-22T03:51:37;21.20;59.30
27188;DHT22;14708;50.872;5.306;2024-03-22T03:54:03;21.20;59.40
27188;DHT22;14708;50.872;5.306;2024-03-22T03:56:29;21.20;59.30
27188;DHT22;14708;50.872;5.306;2024-03-22T03:58:55;21.20;59.40
27188;DHT22;14708;50.872;5.306;2024-03-22T04:01:21;21.20;59.40
27188;DHT22;14708;50.872;5.306;2024-03-22T04:03:49;21.20;59.50
27188;DHT22;14708;50.872;5.306;2024-03-22T04:06:14;21.10;59.40
27188;DHT22;14708;50.872;5.306;2024-03-22T04:08:43;21.20;59.30
27188;DHT22;14708;50.872;5.306;2024-03-22T04:11:09;21.20;59.40
27188;DHT22;14708;50.872;5.306;2024-03-22T04:13:36;21.20;59.30
27188;DHT22;14708;50.872;5.306;2024-03-22T04:16:02;21.10;59.20
27188;DHT22;14708;50.872;5.306;2024-03-22T04:18:29;21.10;59.30
27188;DHT22;14708;50.872;5.306;2024-03-22T04:20:56;21.10;59.20
27188;DHT22;14708;50.872;5.306;2024-03-22T04:23:22;21.10;59.30
27188;DHT22;14708;50.872;5.306;2024-03-22T04:25:59;21.10;60.00
27188;DHT22;14708;50.872;5.306;2024-03-22T04:28:25;21.10;59.40
27188;DHT22;14708;50.872;5.306;2024-03-22T04:31:09;21.10;59.40
27188;DHT22;14708;50.872;5.306;2024-03-22T04:33:37;21.10;59.40
27188;DHT22;14708;50.872;5.306;2024-03-22T04:36:04;21.10;59.40
27188;DHT22;14708;50.872;5.306;2024-03-22T04:38:30;21.10;59.20
27188;DHT22;14708;50.872;5.306;2024-03-22T04:40:56;21.10;59.40
27188;DHT22;14708;50.872;5.306;2024-03-22T04:43:25;21.10;59.30
27188;DHT22;14708;50.872;5.306;2024-03-22T04:45:51;21.10;59.40
27188;DHT22;14708;50.872;5.306;2024-03-22T04:48:22;21.10;59.30
27188;DHT22;14708;50.872;5.306;2024-03-22T04:50:49;21.10;59.20
27188;DHT22;14708;50.872;5.306;2024-03-22T04:53:17;21.10;59.30
27188;DHT22;14708;50.872;5.306;2024-03-22T04:55:44;21.10;59.20
27188;DHT22;14708;50.872;5.306;2024-03-22T04:58:16;21.10;59.40
27188;DHT22;14708;50.872;5.306;2024-03-22T05:00:43;21.10;59.50
27188;DHT22;14708;50.872;5.306;2024-03-22T05:03:09;21.10;59.40
27188;DHT22;14708;50.872;5.306;2024-03-22T05:05:35;21.10;59.40
27188;DHT22;14708;50.872;5.306;2024-03-22T05:08:01;21.10;59.30
27188;DHT22;14708;50.872;5.306;2024-03-22T05:10:28;21.00;59.20
27188;DHT22;14708;50.872;5.306;2024-03-22T05:12:56;21.00;59.20
27188;DHT22;14708;50.872;5.306;2024-03-22T05:15:24;21.00;59.30
27188;DHT22;14708;50.872;5.306;2024-03-22T05:17:56;21.00;59.20
27188;DHT22;14708;50.872;5.306;2024-03-22T05:20:23;21.00;59.20
27188;DHT22;14708;50.872;5.306;2024-03-22T05:22:52;21.00;59.20
27188;DHT22;14708;50.872;5.306;2024-03-22T05:25:20;21.00;59.30
27188;DHT22;14708;50.872;5.306;2024-03-22T05:27:49;21.00;59.20
27188;DHT22;14708;50.872;5.306;2024-03-22T05:30:15;21.00;59.20
27188;DHT22;14708;50.872;5.306;2024-03-22T05:32:41;21.00;59.30
27188;DHT22;14708;50.872;5.306;2024-03-22T05:35:11;21.00;59.30
27188;DHT22;14708;50.872;5.306;2024-03-22T05:37:40;21.00;59.20
27188;DHT22;14708;50.872;5.306;2024-03-22T05:40:07;21.00;59.20
27188;DHT22;14708;50.872;5.306;2024-03-22T05:42:37;21.00;59.20
27188;DHT22;14708;50.872;5.306;2024-03-22T05:45:03;21.00;59.10
27188;DHT22;14708;50.872;5.306;2024-03-22T05:47:28;21.00;59.10
27188;DHT22;14708;50.872;5.306;2024-03-22T05:49:58;21.00;59.20
27188;DHT22;14708;50.872;5.306;2024-03-22T05:52:24;21.00;59.10
27188;DHT22;14708;50.872;5.306;2024-03-22T05:54:50;21.00;59.20
27188;DHT22;14708;50.872;5.306;2024-03-22T05:57:17;20.90;59.20
27188;DHT22;14708;50.872;5.306;2024-03-22T05:59:45;20.90;59.80
27188;DHT22;14708;50.872;5.306;2024-03-22T06:02:14;20.90;59.10
27188;DHT22;14708;50.872;5.306;2024-03-22T06:04:41;20.90;59.20
27188;DHT22;14708;50.872;5.306;2024-03-22T06:07:10;20.90;59.00
27188;DHT22;14708;50.872;5.306;2024-03-22T06:09:41;21.00;59.20
27188;DHT22;14708;50.872;5.306;2024-03-22T06:12:15;20.90;59.00
27188;DHT22;14708;50.872;5.306;2024-03-22T06:14:42;20.90;59.00
27188;DHT22;14708;50.872;5.306;2024-03-22T06:17:12;20.90;59.00
27188;DHT22;14708;50.872;5.306;2024-03-22T06:19:38;20.90;59.00
27188;DHT22;14708;50.872;5.306;2024-03-22T06:22:03;20.90;59.20
27188;DHT22;14708;50.872;5.306;2024-03-22T06:24:31;20.90;59.20
27188;DHT22;14708;50.872;5.306;2024-03-22T06:27:00;20.90;59.00
27188;DHT22;14708;50.872;5.306;2024-03-22T06:29:25;20.90;59.10
27188;DHT22;14708;50.872;5.306;2024-03-22T06:31:51;20.90;59.10
27188;DHT22;14708;50.872;5.306;2024-03-22T06:34:18;20.90;59.10
27188;DHT22;14708;50.872;5.306;2024-03-22T06:36:45;20.90;59.20
27188;DHT22;14708;50.872;5.306;2024-03-22T06:39:11;20.90;59.20
27188;DHT22;14708;50.872;5.306;2024-03-22T06:41:36;20.90;59.70
27188;DHT22;14708;50.872;5.306;2024-03-22T06:44:03;20.90;59.10
27188;DHT22;14708;50.872;5.306;2024-03-22T06:46:29;20.90;59.00
27188;DHT22;14708;50.872;5.306;2024-03-22T06:48:55;20.90;58.80
27188;DHT22;14708;50.872;5.306;2024-03-22T06:51:20;20.90;58.90
27188;DHT22;14708;50.872;5.306;2024-03-22T06:53:46;20.90;59.00
27188;DHT22;14708;50.872;5.306;2024-03-22T06:56:13;20.90;59.30
27188;DHT22;14708;50.872;5.306;2024-03-22T06:58:39;21.00;59.40
27188;DHT22;14708;50.872;5.306;2024-03-22T07:01:06;21.00;59.50
27188;DHT22;14708;50.872;5.306;2024-03-22T07:03:34;21.20;59.30
27188;DHT22;14708;50.872;5.306;2024-03-22T07:05:59;21.30;59.00
27188;DHT22;14708;50.872;5.306;2024-03-22T07:08:26;21.50;58.90
27188;DHT22;14708;50.872;5.306;2024-03-22T07:10:52;21.60;58.80
27188;DHT22;14708;50.872;5.306;2024-03-22T07:13:19;21.80;58.20
27188;DHT22;14708;50.872;5.306;2024-03-22T07:15:46;21.80;57.90
27188;DHT22;14708;50.872;5.306;2024-03-22T07:18:13;21.90;57.80
27188;DHT22;14708;50.872;5.306;2024-03-22T07:20:40;21.90;57.80
27188;DHT22;14708;50.872;5.306;2024-03-22T07:23:06;22.00;57.90
27188;DHT22;14708;50.872;5.306;2024-03-22T07:25:33;22.00;57.60
27188;DHT22;14708;50.872;5.306;2024-03-22T07:27:59;22.10;57.70
27188;DHT22;14708;50.872;5.306;2024-03-22T07:30:26;22.20;57.50
27188;DHT22;14708;50.872;5.306;2024-03-22T07:32:53;22.20;57.50
27188;DHT22;14708;50.872;5.306;2024-03-22T07:35:19;22.30;57.40
27188;DHT22;14708;50.872;5.306;2024-03-22T07:37:45;22.30;57.30
27188;DHT22;14708;50.872;5.306;2024-03-22T07:40:10;22.20;57.20
27188;DHT22;14708;50.872;5.306;2024-03-22T07:42:36;22.30;57.20
27188;DHT22;14708;50.872;5.306;2024-03-22T07:45:02;22.30;57.40
27188;DHT22;14708;50.872;5.306;2024-03-22T07:47:28;22.30;57.40
27188;DHT22;14708;50.872;5.306;2024-03-22T07:49:54;22.20;57.40
27188;DHT22;14708;50.872;5.306;2024-03-22T07:52:19;22.30;57.70
27188;DHT22;14708;50.872;5.306;2024-03-22T07:54:47;22.30;57.60
27188;DHT22;14708;50.872;5.306;2024-03-22T07:57:12;22.30;57.70
27188;DHT22;14708;50.872;5.306;2024-03-22T07:59:38;22.30;57.60
27188;DHT22;14708;50.872;5.306;2024-03-22T08:02:04;22.30;57.70
27188;DHT22;14708;50.872;5.306;2024-03-22T08:04:29;22.30;57.60
27188;DHT22;14708;50.872;5.306;2024-03-22T08:06:56;22.30;57.30
27188;DHT22;14708;50.872;5.306;2024-03-22T08:09:23;22.30;57.30
27188;DHT22;14708;50.872;5.306;2024-03-22T08:11:49;22.20;57.10
27188;DHT22;14708;50.872;5.306;2024-03-22T08:14:15;22.20;57.50
27188;DHT22;14708;50.872;5.306;2024-03-22T08:16:42;22.20;57.60
27188;DHT22;14708;50.872;5.306;2024-03-22T08:19:10;22.20;57.70
27188;DHT22;14708;50.872;5.306;2024-03-22T08:21:39;22.30;57.50
27188;DHT22;14708;50.872;5.306;2024-03-22T08:24:06;22.20;57.40
27188;DHT22;14708;50.872;5.306;2024-03-22T08:26:32;22.20;57.50
27188;DHT22;14708;50.872;5.306;2024-03-22T08:28:57;22.10;57.50
27188;DHT22;14708;50.872;5.306;2024-03-22T08:31:23;22.10;57.80
27188;DHT22;14708;50.872;5.306;2024-03-22T08:33:52;22.10;57.60
27188;DHT22;14708;50.872;5.306;2024-03-22T08:36:18;22.20;57.50
27188;DHT22;14708;50.872;5.306;2024-03-22T08:38:44;22.20;57.50
27188;DHT22;14708;50.872;5.306;2024-03-22T08:41:11;22.20;57.60
27188;DHT22;14708;50.872;5.306;2024-03-22T08:43:36;22.10;57.60
27188;DHT22;14708;50.872;5.306;2024-03-22T08:46:04;22.00;57.90
27188;DHT22;14708;50.872;5.306;2024-03-22T08:48:30;22.10;57.80
27188;DHT22;14708;50.872;5.306;2024-03-22T08:50:57;22.20;57.60
27188;DHT22;14708;50.872;5.306;2024-03-22T08:53:23;22.20;57.50
27188;DHT22;14708;50.872;5.306;2024-03-22T08:55:50;22.20;57.40
27188;DHT22;14708;50.872;5.306;2024-03-22T08:58:17;22.10;57.60
27188;DHT22;14708;50.872;5.306;2024-03-22T09:00:44;22.10;57.60
27188;DHT22;14708;50.872;5.306;2024-03-22T09:03:11;22.10;57.70
27188;DHT22;14708;50.872;5.306;2024-03-22T09:05:36;22.20;57.60
27188;DHT22;14708;50.872;5.306;2024-03-22T09:08:03;22.20;57.60
27188;DHT22;14708;50.872;5.306;2024-03-22T09:10:29;22.20;57.60
27188;DHT22;14708;50.872;5.306;2024-03-22T09:12:55;22.20;57.50
27188;DHT22;14708;50.872;5.306;2024-03-22T09:15:21;22.20;57.30
27188;DHT22;14708;50.872;5.306;2024-03-22T09:17:47;22.20;55.00
27188;DHT22;14708;50.872;5.306;2024-03-22T09:20:14;22.20;56.10
27188;DHT22;14708;50.872;5.306;2024-03-22T09:22:39;22.10;56.40
27188;DHT22;14708;50.872;5.306;2024-03-22T09:25:06;22.10;56.40
27188;DHT22;14708;50.872;5.306;2024-03-22T09:27:32;22.00;56.40
27188;DHT22;14708;50.872;5.306;2024-03-22T09:29:58;22.00;57.10
27188;DHT22;14708;50.872;5.306;2024-03-22T09:32:26;22.10;57.20
27188;DHT22;14708;50.872;5.306;2024-03-22T09:34:53;22.10;56.90
27188;DHT22;14708;50.872;5.306;2024-03-22T09:37:19;22.20;56.90
27188;DHT22;14708;50.872;5.306;2024-03-22T09:39:45;22.20;55.90
27188;DHT22;14708;50.872;5.306;2024-03-22T09:42:16;22.20;56.70
27188;DHT22;14708;50.872;5.306;2024-03-22T09:44:49;22.30;56.80
27188;DHT22;14708;50.872;5.306;2024-03-22T09:47:16;22.40;56.60
27188;DHT22;14708;50.872;5.306;2024-03-22T09:49:43;22.40;56.20
27188;DHT22;14708;50.872;5.306;2024-03-22T09:52:14;22.40;56.30
27188;DHT22;14708;50.872;5.306;2024-03-22T09:54:44;22.40;56.00
27188;DHT22;14708;50.872;5.306;2024-03-22T09:57:14;22.40;56.20
27188;DHT22;14708;50.872;5.306;2024-03-22T09:59:47;22.40;55.90
27188;DHT22;14708;50.872;5.306;2024-03-22T10:02:13;22.30;56.00
27188;DHT22;14708;50.872;5.306;2024-03-22T10:04:40;22.40;56.00
27188;DHT22;14708;50.872;5.306;2024-03-22T10:07:06;22.40;55.90
27188;DHT22;14708;50.872;5.306;2024-03-22T10:09:34;22.40;55.70
27188;DHT22;14708;50.872;5.306;2024-03-22T10:12:01;22.40;55.80
27188;DHT22;14708;50.872;5.306;2024-03-22T10:14:29;22.40;55.80
27188;DHT22;14708;50.872;5.306;2024-03-22T10:16:56;22.40;55.70
27188;DHT22;14708;50.872;5.306;2024-03-22T10:19:22;22.40;55.60
27188;DHT22;14708;50.872;5.306;2024-03-22T10:22:05;22.50;55.70
27188;DHT22;14708;50.872;5.306;2024-03-22T10:24:31;22.40;55.40
27188;DHT22;14708;50.872;5.306;2024-03-22T10:27:00;22.40;55.40
27188;DHT22;14708;50.872;5.306;2024-03-22T10:29:28;22.40;55.60
27188;DHT22;14708;50.872;5.306;2024-03-22T10:31:55;22.50;55.80
27188;DHT22;14708;50.872;5.306;2024-03-22T10:34:22;22.50;55.60
27188;DHT22;14708;50.872;5.306;2024-03-22T10:36:49;22.50;55.30
27188;DHT22;14708;50.872;5.306;2024-03-22T10:39:18;22.50;55.40
27188;DHT22;14708;50.872;5.306;2024-03-22T10:41:47;22.50;55.60
27188;DHT22;14708;50.872;5.306;2024-03-22T10:44:14;22.50;55.50
27188;DHT22;14708;50.872;5.306;2024-03-22T10:46:45;22.50;55.70
27188;DHT22;14708;50.872;5.306;2024-03-22T10:49:20;22.50;55.90
27188;DHT22;14708;50.872;5.306;2024-03-22T10:51:58;22.50;55.90
27188;DHT22;14708;50.872;5.306;2024-03-22T10:54:28;22.50;56.20
27188;DHT22;14708;50.872;5.306;2024-03-22T10:56:57;22.50;56.40
27188;DHT22;14708;50.872;5.306;2024-03-22T10:59:23;22.50;56.50
27188;DHT22;14708;50.872;5.306;2024-03-22T11:01:50;22.50;56.80
27188;DHT22;14708;50.872;5.306;2024-03-22T11:04:19;22.60;56.80
27188;DHT22;14708;50.872;5.306;2024-03-22T11:06:52;22.60;56.90
27188;DHT22;14708;50.872;5.306;2024-03-22T11:09:21;22.60;57.00
27188;DHT22;14708;50.872;5.306;2024-03-22T11:11:47;22.60;57.10
27188;DHT22;14708;50.872;5.306;2024-03-22T11:14:14;22.60;57.20
27188;DHT22;14708;50.872;5.306;2024-03-22T11:16:50;22.60;57.20
27188;DHT22;14708;50.872;5.306;2024-03-22T11:19:17;22.60;57.40
27188;DHT22;14708;50.872;5.306;2024-03-22T11:21:42;22.60;57.40
27188;DHT22;14708;50.872;5.306;2024-03-22T11:24:08;22.60;57.40
27188;DHT22;14708;50.872;5.306;2024-03-22T11:26:36;22.60;57.60
27188;DHT22;14708;50.872;5.306;2024-03-22T11:29:02;22.60;57.80
27188;DHT22;14708;50.872;5.306;2024-03-22T11:31:28;22.70;57.60
27188;DHT22;14708;50.872;5.306;2024-03-22T11:33:55;22.70;57.70
27188;DHT22;14708;50.872;5.306;2024-03-22T11:36:24;22.60;57.90
27188;DHT22;14708;50.872;5.306;2024-03-22T11:38:50;22.70;57.90
27188;DHT22;14708;50.872;5.306;2024-03-22T11:41:25;22.70;58.10
27188;DHT22;14708;50.872;5.306;2024-03-22T11:43:52;22.70;58.10
27188;DHT22;14708;50.872;5.306;2024-03-22T11:46:18;22.70;58.00
27188;DHT22;14708;50.872;5.306;2024-03-22T11:48:45;22.70;58.00
27188;DHT22;14708;50.872;5.306;2024-03-22T11:51:13;22.70;58.00
27188;DHT22;14708;50.872;5.306;2024-03-22T11:53:39;22.70;57.90
27188;DHT22;14708;50.872;5.306;2024-03-22T11:56:14;22.70;58.10
27188;DHT22;14708;50.872;5.306;2024-03-22T11:58:45;22.80;57.90
27188;DHT22;14708;50.872;5.306;2024-03-22T12:01:10;22.80;57.20
27188;DHT22;14708;50.872;5.306;2024-03-22T12:03:36;22.70;56.90
27188;DHT22;14708;50.872;5.306;2024-03-22T12:06:04;22.70;57.30
27188;DHT22;14708;50.872;5.306;2024-03-22T12:08:30;22.70;57.60
27188;DHT22;14708;50.872;5.306;2024-03-22T12:10:55;22.60;57.20
27188;DHT22;14708;50.872;5.306;2024-03-22T12:13:21;22.60;57.70
27188;DHT22;14708;50.872;5.306;2024-03-22T12:15:48;22.70;57.60
27188;DHT22;14708;50.872;5.306;2024-03-22T12:18:14;22.70;57.20
27188;DHT22;14708;50.872;5.306;2024-03-22T12:20:40;22.80;57.30
27188;DHT22;14708;50.872;5.306;2024-03-22T12:23:05;22.60;57.90
27188;DHT22;14708;50.872;5.306;2024-03-22T12:25:32;22.70;58.50
27188;DHT22;14708;50.872;5.306;2024-03-22T12:27:58;22.70;58.80
27188;DHT22;14708;50.872;5.306;2024-03-22T12:30:23;22.70;61.60
27188;DHT22;14708;50.872;5.306;2024-03-22T12:32:49;22.80;68.20
27188;DHT22;14708;50.872;5.306;2024-03-22T12:35:15;22.70;67.20
27188;DHT22;14708;50.872;5.306;2024-03-22T12:37:40;22.80;64.70
27188;DHT22;14708;50.872;5.306;2024-03-22T12:40:06;22.80;64.80
27188;DHT22;14708;50.872;5.306;2024-03-22T12:42:33;22.80;64.30
27188;DHT22;14708;50.872;5.306;2024-03-22T12:45:00;22.70;62.80
27188;DHT22;14708;50.872;5.306;2024-03-22T12:47:26;22.70;62.20
27188;DHT22;14708;50.872;5.306;2024-03-22T12:49:51;22.70;61.40
27188;DHT22;14708;50.872;5.306;2024-03-22T12:52:17;22.70;60.90
27188;DHT22;14708;50.872;5.306;2024-03-22T12:54:43;22.70;60.30
27188;DHT22;14708;50.872;5.306;2024-03-22T12:57:08;22.60;59.80
27188;DHT22;14708;50.872;5.306;2024-03-22T12:59:35;22.60;59.90
27188;DHT22;14708;50.872;5.306;2024-03-22T13:02:01;22.50;60.20
27188;DHT22;14708;50.872;5.306;2024-03-22T13:04:27;22.40;60.40
27188;DHT22;14708;50.872;5.306;2024-03-22T13:06:52;22.40;60.60
27188;DHT22;14708;50.872;5.306;2024-03-22T13:09:19;22.40;60.40
27188;DHT22;14708;50.872;5.306;2024-03-22T13:11:49;22.50;60.30
27188;DHT22;14708;50.872;5.306;2024-03-22T13:14:19;22.50;60.20
27188;DHT22;14708;50.872;5.306;2024-03-22T13:16:46;22.50;60.10
27188;DHT22;14708;50.872;5.306;2024-03-22T13:19:13;22.40;60.00
27188;DHT22;14708;50.872;5.306;2024-03-22T13:21:40;22.40;60.00
27188;DHT22;14708;50.872;5.306;2024-03-22T13:24:06;22.40;60.10
27188;DHT22;14708;50.872;5.306;2024-03-22T13:26:32;22.50;59.90
27188;DHT22;14708;50.872;5.306;2024-03-22T13:28:57;22.50;59.60
27188;DHT22;14708;50.872;5.306;2024-03-22T13:31:24;22.50;59.50
27188;DHT22;14708;50.872;5.306;2024-03-22T13:33:50;22.40;59.80
27188;DHT22;14708;50.872;5.306;2024-03-22T13:36:15;22.40;60.00
27188;DHT22;14708;50.872;5.306;2024-03-22T13:38:41;22.40;60.00
27188;DHT22;14708;50.872;5.306;2024-03-22T13:41:06;22.50;59.90
27188;DHT22;14708;50.872;5.306;2024-03-22T13:43:32;22.40;59.70
27188;DHT22;14708;50.872;5.306;2024-03-22T13:46:00;22.40;59.10
27188;DHT22;14708;50.872;5.306;2024-03-22T13:48:26;22.40;58.90
27188;DHT22;14708;50.872;5.306;2024-03-22T13:50:54;22.40;59.40
27188;DHT22;14708;50.872;5.306;2024-03-22T13:53:20;22.50;59.60
27188;DHT22;14708;50.872;5.306;2024-03-22T13:55:49;22.50;57.40
27188;DHT22;14708;50.872;5.306;2024-03-22T13:58:15;22.50;57.70
27188;DHT22;14708;50.872;5.306;2024-03-22T14:00:41;22.40;57.80
27188;DHT22;14708;50.872;5.306;2024-03-22T14:03:07;22.40;58.90
27188;DHT22;14708;50.872;5.306;2024-03-22T14:05:34;22.40;59.20
27188;DHT22;14708;50.872;5.306;2024-03-22T14:08:00;22.40;59.10
27188;DHT22;14708;50.872;5.306;2024-03-22T14:10:27;22.40;57.80
27188;DHT22;14708;50.872;5.306;2024-03-22T14:12:56;22.40;57.80
27188;DHT22;14708;50.872;5.306;2024-03-22T14:15:22;22.40;57.80
27188;DHT22;14708;50.872;5.306;2024-03-22T14:17:54;22.30;58.50
27188;DHT22;14708;50.872;5.306;2024-03-22T14:20:21;22.40;58.80
27188;DHT22;14708;50.872;5.306;2024-03-22T14:22:46;22.50;57.50
27188;DHT22;14708;50.872;5.306;2024-03-22T14:25:13;22.40;57.40
27188;DHT22;14708;50.872;5.306;2024-03-22T14:27:39;22.40;57.60
27188;DHT22;14708;50.872;5.306;2024-03-22T14:30:06;22.40;58.40
27188;DHT22;14708;50.872;5.306;2024-03-22T14:32:35;22.40;58.20
27188;DHT22;14708;50.872;5.306;2024-03-22T14:35:01;22.50;57.30
27188;DHT22;14708;50.872;5.306;2024-03-22T14:37:27;22.40;57.00
27188;DHT22;14708;50.872;5.306;2024-03-22T14:39:54;22.40;57.00
27188;DHT22;14708;50.872;5.306;2024-03-22T14:42:20;22.30;57.60
27188;DHT22;14708;50.872;5.306;2024-03-22T14:44:46;22.30;57.50
27188;DHT22;14708;50.872;5.306;2024-03-22T14:47:12;22.40;58.00
27188;DHT22;14708;50.872;5.306;2024-03-22T14:49:37;22.40;56.80
27188;DHT22;14708;50.872;5.306;2024-03-22T14:52:06;22.30;55.50
27188;DHT22;14708;50.872;5.306;2024-03-22T14:54:32;22.20;55.00
27188;DHT22;14708;50.872;5.306;2024-03-22T14:56:58;22.20;55.70
27188;DHT22;14708;50.872;5.306;2024-03-22T14:59:27;22.20;56.20
27188;DHT22;14708;50.872;5.306;2024-03-22T15:01:54;22.40;56.00
27188;DHT22;14708;50.872;5.306;2024-03-22T15:04:21;22.40;55.90
27188;DHT22;14708;50.872;5.306;2024-03-22T15:06:46;22.30;55.40
27188;DHT22;14708;50.872;5.306;2024-03-22T15:09:19;22.20;55.60
27188;DHT22;14708;50.872;5.306;2024-03-22T15:11:46;22.20;55.80
27188;DHT22;14708;50.872;5.306;2024-03-22T15:14:12;22.20;56.00
27188;DHT22;14708;50.872;5.306;2024-03-22T15:16:39;22.30;56.10
27188;DHT22;14708;50.872;5.306;2024-03-22T15:19:08;22.40;56.20
27188;DHT22;14708;50.872;5.306;2024-03-22T15:21:36;22.30;56.30
27188;DHT22;14708;50.872;5.306;2024-03-22T15:24:03;22.30;56.30
27188;DHT22;14708;50.872;5.306;2024-03-22T15:26:29;22.30;56.50
27188;DHT22;14708;50.872;5.306;2024-03-22T15:28:55;22.30;57.10
27188;DHT22;14708;50.872;5.306;2024-03-22T15:31:21;22.30;57.40